sensor_id;sensor_type;location;lat;lon;timestamp;temperature;humidity
13806;DHT22;6974;53.606;9.872;2022-08-21T00:00:12;17.20;99.90
13806;DHT22;6974;53.606;9.872;2022-08-21T00:02:48;17.20;99.90
13806;DHT22;6974;53.606;9.872;2022-08-21T00:05:16;17.20;99.90
13806;DHT22;6974;53.606;9.872;2022-08-21T00:07:43;17.10;99.90
13806;DHT22;6974;53.606;9.872;2022-08-21T00:10:15;17.10;99.90
13806;DHT22;6974;53.606;9.872;2022-08-21T00:12:43;17.10;99.90
13806;DHT22;6974;53.606;9.872;2022-08-21T00:15:13;17.10;99.90
13806;DHT22;6974;53.606;9.872;2022-08-21T00:17:40;17.10;99.90
13806;DHT22;6974;53.606;9.872;2022-08-21T00:20:09;17.10;99.90
13806;DHT22;6974;53.606;9.872;2022-08-21T00:22:37;17.00;99.90
13806;DHT22;6974;53.606;9.872;2022-08-21T00:25:06;17.10;99.90
13806;DHT22;6974;53.606;9.872;2022-08-21T00:27:36;16.90;99.90
13806;DHT22;6974;53.606;9.872;2022-08-21T00:30:04;16.90;99.90
13806;DHT22;6974;53.606;9.872;2022-08-21T00:32:31;16.90;99.90
13806;DHT22;6974;53.606;9.872;2022-08-21T00:34:58;16.90;99.90
13806;DHT22;6974;53.606;9.872;2022-08-21T00:37:26;16.90;99.90
13806;DHT22;6974;53.606;9.872;2022-08-21T00:39:53;16.90;99.90
13806;DHT22;6974;53.606;9.872;2022-08-21T00:42:20;16.90;99.90
13806;DHT22;6974;53.606;9.872;2022-08-21T00:44:49;16.90;99.90
13806;DHT22;6974;53.606;9.872;2022-08-21T00:47:17;16.90;99.90
13806;DHT22;6974;53.606;9.872;2022-08-21T00:49:44;16.90;99.90
13806;DHT22;6974;53.606;9.872;2022-08-21T00:52:17;16.90;99.90
13806;DHT22;6974;53.606;9.872;2022-08-21T00:54:46;16.90;99.90
13806;DHT22;6974;53.606;9.872;2022-08-21T00:57:16;16.90;99.90
13806;DHT22;6974;53.606;9.872;2022-08-21T00:59:46;16.90;99.90
13806;DHT22;6974;53.606;9.872;2022-08-21T01:02:17;16.90;99.90
13806;DHT22;6974;53.606;9.872;2022-08-21T01:04:45;16.90;99.90
13806;DHT22;6974;53.606;9.872;2022-08-21T01:07:13;16.80;99.90
13806;DHT22;6974;53.606;9.872;2022-08-21T01:09:40;16.80;99.90
13806;DHT22;6974;53.606;9.872;2022-08-21T01:12:08;16.80;99.90
13806;DHT22;6974;53.606;9.872;2022-08-21T01:14:37;16.80;99.90
13806;DHT22;6974;53.606;9.872;2022-08-21T01:17:05;16.80;99.90
13806;DHT22;6974;53.606;9.872;2022-08-21T01:19:34;16.80;99.90
13806;DHT22;6974;53.606;9.872;2022-08-21T01:22:03;16.80;99.90
13806;DHT22;6974;53.606;9.872;2022-08-21T01:24:31;16.80;99.90
13806;DHT22;6974;53.606;9.872;2022-08-21T01:26:58;16.70;99.90
13806;DHT22;6974;53.606;9.872;2022-08-21T01:29:30;16.80;99.90
13806;DHT22;6974;53.606;9.872;2022-08-21T01:32:00;16.80;99.90
13806;DHT22;6974;53.606;9.872;2022-08-21T01:34:29;16.80;99.90
13806;DHT22;6974;53.606;9.872;2022-08-21T01:36:56;16.70;99.90
13806;DHT22;6974;53.606;9.872;2022-08-21T01:39:25;16.70;99.90
13806;DHT22;6974;53.606;9.872;2022-08-21T01:41:52;16.70;99.90
13806;DHT22;6974;53.606;9.872;2022-08-21T01:44:21;16.60;99.90
13806;DHT22;6974;53.606;9.872;2022-08-21T01:46:48;16.70;99.90
13806;DHT22;6974;53.606;9.872;2022-08-21T01:49:15;16.60;99.90
13806;DHT22;6974;53.606;9.872;2022-08-21T01:51:43;16.60;99.90
13806;DHT22;6974;53.606;9.872;2022-08-21T01:54:11;16.60;99.90
13806;DHT22;6974;53.606;9.872;2022-08-21T01:56:41;16.60;99.90
13806;DHT22;6974;53.606;9.872;2022-08-21T01:59:09;16.60;99.90
13806;DHT22;6974;53.606;9.872;2022-08-21T02:01:36;16.60;99.90
13806;DHT22;6974;53.606;9.872;2022-08-21T02:04:05;16.60;99.90
13806;DHT22;6974;53.606;9.872;2022-08-21T02:06:32;16.50;99.90
13806;DHT22;6974;53.606;9.872;2022-08-21T02:09:00;16.50;99.90
13806;DHT22;6974;53.606;9.872;2022-08-21T02:11:27;16.50;99.90
13806;DHT22;6974;53.606;9.872;2022-08-21T02:13:56;16.40;99.90
13806;DHT22;6974;53.606;9.872;2022-08-21T02:16:23;16.40;99.90
13806;DHT22;6974;53.606;9.872;2022-08-21T02:18:50;16.40;99.90
13806;DHT22;6974;53.606;9.872;2022-08-21T02:21:18;16.40;99.90
13806;DHT22;6974;53.606;9.872;2022-08-21T02:23:45;16.40;99.90
13806;DHT22;6974;53.606;9.872;2022-08-21T02:26:12;16.30;99.90
13806;DHT22;6974;53.606;9.872;2022-08-21T02:28:39;16.30;99.90
13806;DHT22;6974;53.606;9.872;2022-08-21T02:31:10;16.40;99.90
13806;DHT22;6974;53.606;9.872;2022-08-21T02:33:37;16.40;99.90
13806;DHT22;6974;53.606;9.872;2022-08-21T02:36:05;16.40;99.90
13806;DHT22;6974;53.606;9.872;2022-08-21T02:38:34;16.40;99.90
13806;DHT22;6974;53.606;9.872;2022-08-21T02:41:04;16.40;99.90
13806;DHT22;6974;53.606;9.872;2022-08-21T02:43:31;16.40;99.90
13806;DHT22;6974;53.606;9.872;2022-08-21T02:45:58;16.30;99.90
13806;DHT22;6974;53.606;9.872;2022-08-21T02:48:29;16.30;99.90
13806;DHT22;6974;53.606;9.872;2022-08-21T02:51:00;16.40;99.90
13806;DHT22;6974;53.606;9.872;2022-08-21T02:53:27;16.30;99.90
13806;DHT22;6974;53.606;9.872;2022-08-21T02:55:57;16.30;99.90
13806;DHT22;6974;53.606;9.872;2022-08-21T02:58:29;16.30;99.90
13806;DHT22;6974;53.606;9.872;2022-08-21T03:00:57;16.30;99.90
13806;DHT22;6974;53.606;9.872;2022-08-21T03:03:24;16.30;99.90
13806;DHT22;6974;53.606;9.872;2022-08-21T03:05:54;16.30;99.90
13806;DHT22;6974;53.606;9.872;2022-08-21T03:08:22;16.30;99.90
13806;DHT22;6974;53.606;9.872;2022-08-21T03:10:51;16.30;99.90
13806;DHT22;6974;53.606;9.872;2022-08-21T03:13:19;16.30;99.90
13806;DHT22;6974;53.606;9.872;2022-08-21T03:15:47;16.30;99.90
13806;DHT22;6974;53.606;9.872;2022-08-21T03:18:14;16.20;99.90
13806;DHT22;6974;53.606;9.872;2022-08-21T03:20:43;16.20;99.90
13806;DHT22;6974;53.606;9.872;2022-08-21T03:23:13;16.20;99.90
13806;DHT22;6974;53.606;9.872;2022-08-21T03:25:41;16.20;99.90
13806;DHT22;6974;53.606;9.872;2022-08-21T03:28:10;16.20;99.90
13806;DHT22;6974;53.606;9.872;2022-08-21T03:30:37;16.20;99.90
13806;DHT22;6974;53.606;9.872;2022-08-21T03:33:04;16.20;99.90
13806;DHT22;6974;53.606;9.872;2022-08-21T03:35:31;16.20;99.90
13806;DHT22;6974;53.606;9.872;2022-08-21T03:37:58;16.20;99.90
13806;DHT22;6974;53.606;9.872;2022-08-21T03:40:27;16.20;99.90
13806;DHT22;6974;53.606;9.872;2022-08-21T03:42:54;16.20;99.90
13806;DHT22;6974;53.606;9.872;2022-08-21T03:45:22;16.20;99.90
13806;DHT22;6974;53.606;9.872;2022-08-21T03:47:54;16.20;99.90
13806;DHT22;6974;53.606;9.872;2022-08-21T03:50:23;16.20;99.90
13806;DHT22;6974;53.606;9.872;2022-08-21T03:52:50;16.20;99.90
13806;DHT22;6974;53.606;9.872;2022-08-21T03:55:17;16.20;99.90
13806;DHT22;6974;53.606;9.872;2022-08-21T03:57:46;16.10;99.90
13806;DHT22;6974;53.606;9.872;2022-08-21T04:00:14;16.10;99.90
13806;DHT22;6974;53.606;9.872;2022-08-21T04:02:42;16.10;99.90
13806;DHT22;6974;53.606;9.872;2022-08-21T04:05:10;16.10;99.90
13806;DHT22;6974;53.606;9.872;2022-08-21T04:07:38;16.00;99.90
13806;DHT22;6974;53.606;9.872;2022-08-21T04:10:06;16.00;99.90
13806;DHT22;6974;53.606;9.872;2022-08-21T04:12:34;15.90;99.90
13806;DHT22;6974;53.606;9.872;2022-08-21T04:15:04;15.90;99.90
13806;DHT22;6974;53.606;9.872;2022-08-21T04:17:31;16.00;99.90
13806;DHT22;6974;53.606;9.872;2022-08-21T04:19:58;15.90;99.90
13806;DHT22;6974;53.606;9.872;2022-08-21T04:22:26;15.90;99.90
13806;DHT22;6974;53.606;9.872;2022-08-21T04:24:53;15.90;99.90
13806;DHT22;6974;53.606;9.872;2022-08-21T04:27:21;15.90;99.90
13806;DHT22;6974;53.606;9.872;2022-08-21T04:29:48;15.90;99.90
13806;DHT22;6974;53.606;9.872;2022-08-21T04:32:23;15.90;99.90
13806;DHT22;6974;53.606;9.872;2022-08-21T04:34:50;16.00;99.90
13806;DHT22;6974;53.606;9.872;2022-08-21T04:37:17;15.90;99.90
13806;DHT22;6974;53.606;9.872;2022-08-21T04:39:44;15.90;99.90
13806;DHT22;6974;53.606;9.872;2022-08-21T04:42:11;16.00;99.90
13806;DHT22;6974;53.606;9.872;2022-08-21T04:44:38;16.00;99.90
13806;DHT22;6974;53.606;9.872;2022-08-21T04:47:06;16.10;99.90
13806;DHT22;6974;53.606;9.872;2022-08-21T04:49:35;16.10;99.90
13806;DHT22;6974;53.606;9.872;2022-08-21T04:52:02;16.10;99.90
13806;DHT22;6974;53.606;9.872;2022-08-21T04:54:30;16.20;99.90
13806;DHT22;6974;53.606;9.872;2022-08-21T04:57:00;16.20;99.90
13806;DHT22;6974;53.606;9.872;2022-08-21T04:59:32;16.20;99.90
13806;DHT22;6974;53.606;9.872;2022-08-21T05:02:00;16.30;99.90
13806;DHT22;6974;53.606;9.872;2022-08-21T05:04:30;16.30;99.90
13806;DHT22;6974;53.606;9.872;2022-08-21T05:07:04;16.40;99.90
13806;DHT22;6974;53.606;9.872;2022-08-21T05:09:32;16.40;99.90
13806;DHT22;6974;53.606;9.872;2022-08-21T05:12:00;16.40;99.90
13806;DHT22;6974;53.606;9.872;2022-08-21T05:14:28;16.50;99.90
13806;DHT22;6974;53.606;9.872;2022-08-21T05:16:54;16.50;99.90
13806;DHT22;6974;53.606;9.872;2022-08-21T05:19:24;16.60;99.90
13806;DHT22;6974;53.606;9.872;2022-08-21T05:21:52;16.60;99.90
13806;DHT22;6974;53.606;9.872;2022-08-21T05:24:20;16.60;99.90
13806;DHT22;6974;53.606;9.872;2022-08-21T05:26:47;16.70;99.90
13806;DHT22;6974;53.606;9.872;2022-08-21T05:29:15;16.70;99.90
13806;DHT22;6974;53.606;9.872;2022-08-21T05:31:43;16.80;99.90
13806;DHT22;6974;53.606;9.872;2022-08-21T05:34:10;16.80;99.90
13806;DHT22;6974;53.606;9.872;2022-08-21T05:36:38;16.90;99.90
13806;DHT22;6974;53.606;9.872;2022-08-21T05:39:05;16.90;99.90
13806;DHT22;6974;53.606;9.872;2022-08-21T05:41:33;16.90;99.90
13806;DHT22;6974;53.606;9.872;2022-08-21T05:44:00;17.00;99.90
13806;DHT22;6974;53.606;9.872;2022-08-21T05:46:29;17.10;99.90
13806;DHT22;6974;53.606;9.872;2022-08-21T05:48:56;17.10;99.90
13806;DHT22;6974;53.606;9.872;2022-08-21T05:51:23;17.10;99.90
13806;DHT22;6974;53.606;9.872;2022-08-21T05:53:50;17.20;99.90
13806;DHT22;6974;53.606;9.872;2022-08-21T05:56:17;17.20;99.90
13806;DHT22;6974;53.606;9.872;2022-08-21T05:58:46;17.30;99.90
13806;DHT22;6974;53.606;9.872;2022-08-21T06:01:13;17.30;99.90
13806;DHT22;6974;53.606;9.872;2022-08-21T06:03:41;17.40;99.90
13806;DHT22;6974;53.606;9.872;2022-08-21T06:06:08;17.50;99.90
13806;DHT22;6974;53.606;9.872;2022-08-21T06:08:37;17.60;99.90
13806;DHT22;6974;53.606;9.872;2022-08-21T06:11:05;17.60;99.90
13806;DHT22;6974;53.606;9.872;2022-08-21T06:13:33;17.70;99.90
13806;DHT22;6974;53.606;9.872;2022-08-21T06:16:04;17.80;99.90
13806;DHT22;6974;53.606;9.872;2022-08-21T06:18:34;17.80;99.90
13806;DHT22;6974;53.606;9.872;2022-08-21T06:21:02;17.90;99.90
13806;DHT22;6974;53.606;9.872;2022-08-21T06:23:29;18.00;99.90
13806;DHT22;6974;53.606;9.872;2022-08-21T06:25:56;18.00;99.90
13806;DHT22;6974;53.606;9.872;2022-08-21T06:28:23;18.10;99.90
13806;DHT22;6974;53.606;9.872;2022-08-21T06:30:50;18.20;99.90
13806;DHT22;6974;53.606;9.872;2022-08-21T06:33:19;18.20;99.90
13806;DHT22;6974;53.606;9.872;2022-08-21T06:35:46;18.20;99.90
13806;DHT22;6974;53.606;9.872;2022-08-21T06:38:13;18.30;99.90
13806;DHT22;6974;53.606;9.872;2022-08-21T06:40:41;18.30;99.90
13806;DHT22;6974;53.606;9.872;2022-08-21T06:43:11;18.30;99.90
13806;DHT22;6974;53.606;9.872;2022-08-21T06:45:38;18.30;99.90
13806;DHT22;6974;53.606;9.872;2022-08-21T06:48:06;18.40;99.90
13806;DHT22;6974;53.606;9.872;2022-08-21T06:50:35;18.40;99.90
13806;DHT22;6974;53.606;9.872;2022-08-21T06:53:04;18.50;99.90
13806;DHT22;6974;53.606;9.872;2022-08-21T06:55:32;18.60;99.90
13806;DHT22;6974;53.606;9.872;2022-08-21T06:57:59;18.50;99.90
13806;DHT22;6974;53.606;9.872;2022-08-21T07:00:26;18.60;99.90
13806;DHT22;6974;53.606;9.872;2022-08-21T07:02:53;18.70;99.90
13806;DHT22;6974;53.606;9.872;2022-08-21T07:05:21;18.80;99.90
13806;DHT22;6974;53.606;9.872;2022-08-21T07:07:49;18.80;99.90
13806;DHT22;6974;53.606;9.872;2022-08-21T07:10:17;18.90;99.90
13806;DHT22;6974;53.606;9.872;2022-08-21T07:12:44;18.90;99.90
13806;DHT22;6974;53.606;9.872;2022-08-21T07:15:11;18.90;99.90
13806;DHT22;6974;53.606;9.872;2022-08-21T07:17:38;19.00;99.90
13806;DHT22;6974;53.606;9.872;2022-08-21T07:20:07;19.00;99.90
13806;DHT22;6974;53.606;9.872;2022-08-21T07:22:35;19.10;99.90
13806;DHT22;6974;53.606;9.872;2022-08-21T07:25:06;19.20;99.90
13806;DHT22;6974;53.606;9.872;2022-08-21T07:27:33;19.30;99.90
13806;DHT22;6974;53.606;9.872;2022-08-21T07:30:00;19.40;99.90
13806;DHT22;6974;53.606;9.872;2022-08-21T07:32:28;19.40;99.90
13806;DHT22;6974;53.606;9.872;2022-08-21T07:34:58;19.50;99.90
13806;DHT22;6974;53.606;9.872;2022-08-21T07:37:25;19.50;99.90
13806;DHT22;6974;53.606;9.872;2022-08-21T07:39:52;19.50;99.90
13806;DHT22;6974;53.606;9.872;2022-08-21T07:42:21;19.60;99.90
13806;DHT22;6974;53.606;9.872;2022-08-21T07:44:48;19.60;99.90
13806;DHT22;6974;53.606;9.872;2022-08-21T07:47:15;19.70;99.90
13806;DHT22;6974;53.606;9.872;2022-08-21T07:49:42;19.70;99.90
13806;DHT22;6974;53.606;9.872;2022-08-21T07:52:09;19.90;99.90
13806;DHT22;6974;53.606;9.872;2022-08-21T07:54:36;19.90;99.90
13806;DHT22;6974;53.606;9.872;2022-08-21T07:57:05;20.00;99.90
13806;DHT22;6974;53.606;9.872;2022-08-21T07:59:34;20.00;99.90
13806;DHT22;6974;53.606;9.872;2022-08-21T08:02:01;20.10;99.90
13806;DHT22;6974;53.606;9.872;2022-08-21T08:04:28;20.10;99.90
13806;DHT22;6974;53.606;9.872;2022-08-21T08:06:55;20.10;99.90
13806;DHT22;6974;53.606;9.872;2022-08-21T08:09:22;20.20;99.90
13806;DHT22;6974;53.606;9.872;2022-08-21T08:11:49;20.20;99.90
13806;DHT22;6974;53.606;9.872;2022-08-21T08:14:16;20.30;99.90
13806;DHT22;6974;53.606;9.872;2022-08-21T08:16:45;20.20;99.90
13806;DHT22;6974;53.606;9.872;2022-08-21T08:19:14;20.30;99.90
13806;DHT22;6974;53.606;9.872;2022-08-21T08:21:41;20.30;99.90
13806;DHT22;6974;53.606;9.872;2022-08-21T08:24:08;20.40;99.90
13806;DHT22;6974;53.606;9.872;2022-08-21T08:26:35;20.40;99.90
13806;DHT22;6974;53.606;9.872;2022-08-21T08:29:03;20.50;99.90
13806;DHT22;6974;53.606;9.872;2022-08-21T08:31:30;20.50;99.90
13806;DHT22;6974;53.606;9.872;2022-08-21T08:33:59;20.60;99.90
13806;DHT22;6974;53.606;9.872;2022-08-21T08:36:32;20.60;99.90
13806;DHT22;6974;53.606;9.872;2022-08-21T08:38:59;20.70;99.90
13806;DHT22;6974;53.606;9.872;2022-08-21T08:41:28;20.70;99.90
13806;DHT22;6974;53.606;9.872;2022-08-21T08:44:01;20.80;99.90
13806;DHT22;6974;53.606;9.872;2022-08-21T08:46:33;20.90;99.90
13806;DHT22;6974;53.606;9.872;2022-08-21T08:49:08;20.90;99.90
13806;DHT22;6974;53.606;9.872;2022-08-21T08:51:42;21.00;99.90
13806;DHT22;6974;53.606;9.872;2022-08-21T08:54:14;21.10;99.90
13806;DHT22;6974;53.606;9.872;2022-08-21T08:56:42;21.20;99.90
13806;DHT22;6974;53.606;9.872;2022-08-21T08:59:15;21.30;99.90
13806;DHT22;6974;53.606;9.872;2022-08-21T09:01:44;21.40;99.90
13806;DHT22;6974;53.606;9.872;2022-08-21T09:04:16;21.40;99.90
13806;DHT22;6974;53.606;9.872;2022-08-21T09:06:55;21.50;99.90
13806;DHT22;6974;53.606;9.872;2022-08-21T09:09:47;21.70;99.90
13806;DHT22;6974;53.606;9.872;2022-08-21T09:12:23;21.80;99.90
13806;DHT22;6974;53.606;9.872;2022-08-21T09:15:03;21.90;99.90
13806;DHT22;6974;53.606;9.872;2022-08-21T09:17:51;22.00;99.90
13806;DHT22;6974;53.606;9.872;2022-08-21T09:20:32;22.20;99.90
13806;DHT22;6974;53.606;9.872;2022-08-21T09:23:15;22.30;99.90
13806;DHT22;6974;53.606;9.872;2022-08-21T09:25:53;22.50;99.90
13806;DHT22;6974;53.606;9.872;2022-08-21T09:28:22;22.60;99.90
13806;DHT22;6974;53.606;9.872;2022-08-21T09:30:50;22.70;99.90
13806;DHT22;6974;53.606;9.872;2022-08-21T09:33:21;22.90;99.90
13806;DHT22;6974;53.606;9.872;2022-08-21T09:35:52;23.10;99.90
13806;DHT22;6974;53.606;9.872;2022-08-21T09:38:28;23.30;99.90
13806;DHT22;6974;53.606;9.872;2022-08-21T09:40:59;23.50;99.90
13806;DHT22;6974;53.606;9.872;2022-08-21T09:43:27;23.50;99.90
13806;DHT22;6974;53.606;9.872;2022-08-21T09:46:09;23.60;99.90
13806;DHT22;6974;53.606;9.872;2022-08-21T09:48:41;23.70;99.90
13806;DHT22;6974;53.606;9.872;2022-08-21T09:51:12;23.70;99.90
13806;DHT22;6974;53.606;9.872;2022-08-21T09:53:43;23.70;99.90
13806;DHT22;6974;53.606;9.872;2022-08-21T09:56:20;23.70;99.90
13806;DHT22;6974;53.606;9.872;2022-08-21T09:59:18;23.70;99.90
13806;DHT22;6974;53.606;9.872;2022-08-21T10:01:48;23.70;99.90
13806;DHT22;6974;53.606;9.872;2022-08-21T10:04:21;23.70;99.90
13806;DHT22;6974;53.606;9.872;2022-08-21T10:07:05;23.60;99.90
13806;DHT22;6974;53.606;9.872;2022-08-21T10:09:32;23.60;99.90
13806;DHT22;6974;53.606;9.872;2022-08-21T10:12:10;23.50;99.90
13806;DHT22;6974;53.606;9.872;2022-08-21T10:14:48;23.50;99.90
13806;DHT22;6974;53.606;9.872;2022-08-21T10:17:21;23.60;99.90
13806;DHT22;6974;53.606;9.872;2022-08-21T10:19:59;23.70;99.90
13806;DHT22;6974;53.606;9.872;2022-08-21T10:22:38;23.90;99.90
13806;DHT22;6974;53.606;9.872;2022-08-21T10:25:17;24.30;99.90
13806;DHT22;6974;53.606;9.872;2022-08-21T10:27:54;24.50;99.90
13806;DHT22;6974;53.606;9.872;2022-08-21T10:30:36;24.60;99.90
13806;DHT22;6974;53.606;9.872;2022-08-21T10:33:23;24.60;99.90
13806;DHT22;6974;53.606;9.872;2022-08-21T10:36:02;24.50;99.90
13806;DHT22;6974;53.606;9.872;2022-08-21T10:38:59;24.70;99.90
13806;DHT22;6974;53.606;9.872;2022-08-21T10:41:54;24.70;99.90
13806;DHT22;6974;53.606;9.872;2022-08-21T10:44:36;24.60;99.90
13806;DHT22;6974;53.606;9.872;2022-08-21T10:47:07;24.70;99.90
13806;DHT22;6974;53.606;9.872;2022-08-21T10:49:39;24.80;99.90
13806;DHT22;6974;53.606;9.872;2022-08-21T10:52:25;25.00;99.90
13806;DHT22;6974;53.606;9.872;2022-08-21T10:55:00;25.10;99.90
13806;DHT22;6974;53.606;9.872;2022-08-21T10:57:34;25.10;99.90
13806;DHT22;6974;53.606;9.872;2022-08-21T11:00:09;25.10;99.90
13806;DHT22;6974;53.606;9.872;2022-08-21T11:02:41;25.20;99.90
13806;DHT22;6974;53.606;9.872;2022-08-21T11:05:12;25.40;99.90
13806;DHT22;6974;53.606;9.872;2022-08-21T11:07:45;25.60;99.90
13806;DHT22;6974;53.606;9.872;2022-08-21T11:10:19;25.80;99.90
13806;DHT22;6974;53.606;9.872;2022-08-21T11:12:50;26.00;99.90
13806;DHT22;6974;53.606;9.872;2022-08-21T11:15:28;25.90;99.90
13806;DHT22;6974;53.606;9.872;2022-08-21T11:18:03;25.80;99.90
13806;DHT22;6974;53.606;9.872;2022-08-21T11:20:38;25.70;99.90
13806;DHT22;6974;53.606;9.872;2022-08-21T11:23:11;25.80;99.90
13806;DHT22;6974;53.606;9.872;2022-08-21T11:25:44;26.00;99.90
13806;DHT22;6974;53.606;9.872;2022-08-21T11:28:17;26.10;99.90
13806;DHT22;6974;53.606;9.872;2022-08-21T11:30:51;26.30;99.90
13806;DHT22;6974;53.606;9.872;2022-08-21T11:33:30;26.40;99.90
13806;DHT22;6974;53.606;9.872;2022-08-21T11:36:02;26.20;99.90
13806;DHT22;6974;53.606;9.872;2022-08-21T11:38:39;26.00;99.90
13806;DHT22;6974;53.606;9.872;2022-08-21T11:41:23;25.80;99.90
13806;DHT22;6974;53.606;9.872;2022-08-21T11:44:00;25.60;99.90
13806;DHT22;6974;53.606;9.872;2022-08-21T11:46:35;25.30;99.90
13806;DHT22;6974;53.606;9.872;2022-08-21T11:49:16;25.00;99.90
13806;DHT22;6974;53.606;9.872;2022-08-21T11:51:50;24.80;99.90
13806;DHT22;6974;53.606;9.872;2022-08-21T11:54:24;24.50;99.90
13806;DHT22;6974;53.606;9.872;2022-08-21T11:56:59;24.60;99.90
13806;DHT22;6974;53.606;9.872;2022-08-21T11:59:34;24.70;99.90
13806;DHT22;6974;53.606;9.872;2022-08-21T12:02:09;24.90;99.90
13806;DHT22;6974;53.606;9.872;2022-08-21T12:04:44;25.00;99.90
13806;DHT22;6974;53.606;9.872;2022-08-21T12:07:13;25.20;99.90
13806;DHT22;6974;53.606;9.872;2022-08-21T12:09:52;25.40;99.90
13806;DHT22;6974;53.606;9.872;2022-08-21T12:12:31;25.40;99.90
13806;DHT22;6974;53.606;9.872;2022-08-21T12:15:26;25.30;99.90
13806;DHT22;6974;53.606;9.872;2022-08-21T12:17:59;25.10;99.90
13806;DHT22;6974;53.606;9.872;2022-08-21T12:20:35;24.90;99.90
13806;DHT22;6974;53.606;9.872;2022-08-21T12:23:13;24.90;99.90
13806;DHT22;6974;53.606;9.872;2022-08-21T12:25:44;25.10;99.90
13806;DHT22;6974;53.606;9.872;2022-08-21T12:28:16;25.30;99.90
13806;DHT22;6974;53.606;9.872;2022-08-21T12:30:48;25.60;99.90
13806;DHT22;6974;53.606;9.872;2022-08-21T12:33:24;25.80;99.90
13806;DHT22;6974;53.606;9.872;2022-08-21T12:36:02;25.90;99.90
13806;DHT22;6974;53.606;9.872;2022-08-21T12:38:35;26.00;99.90
13806;DHT22;6974;53.606;9.872;2022-08-21T12:41:10;26.00;99.90
13806;DHT22;6974;53.606;9.872;2022-08-21T12:43:43;25.90;99.90
13806;DHT22;6974;53.606;9.872;2022-08-21T12:46:17;25.90;99.90
13806;DHT22;6974;53.606;9.872;2022-08-21T12:48:48;25.90;99.90
13806;DHT22;6974;53.606;9.872;2022-08-21T12:51:22;25.80;99.90
13806;DHT22;6974;53.606;9.872;2022-08-21T12:53:52;25.80;99.90
13806;DHT22;6974;53.606;9.872;2022-08-21T12:56:21;25.70;99.90
13806;DHT22;6974;53.606;9.872;2022-08-21T12:58:53;25.80;99.90
13806;DHT22;6974;53.606;9.872;2022-08-21T13:01:24;25.90;99.90
13806;DHT22;6974;53.606;9.872;2022-08-21T13:03:54;25.70;99.90
13806;DHT22;6974;53.606;9.872;2022-08-21T13:06:23;25.60;99.90
13806;DHT22;6974;53.606;9.872;2022-08-21T13:08:55;25.50;99.90
13806;DHT22;6974;53.606;9.872;2022-08-21T13:11:23;25.40;99.90
13806;DHT22;6974;53.606;9.872;2022-08-21T13:13:53;25.50;99.90
13806;DHT22;6974;53.606;9.872;2022-08-21T13:16:25;25.60;99.90
13806;DHT22;6974;53.606;9.872;2022-08-21T13:18:56;25.70;99.90
13806;DHT22;6974;53.606;9.872;2022-08-21T13:21:28;25.70;99.90
13806;DHT22;6974;53.606;9.872;2022-08-21T13:24:08;25.50;99.90
13806;DHT22;6974;53.606;9.872;2022-08-21T13:26:36;25.50;99.90
13806;DHT22;6974;53.606;9.872;2022-08-21T13:29:09;25.40;99.90
13806;DHT22;6974;53.606;9.872;2022-08-21T13:31:38;25.20;99.90
13806;DHT22;6974;53.606;9.872;2022-08-21T13:34:06;25.20;99.90
13806;DHT22;6974;53.606;9.872;2022-08-21T13:36:36;25.30;99.90
13806;DHT22;6974;53.606;9.872;2022-08-21T13:39:03;25.20;99.90
13806;DHT22;6974;53.606;9.872;2022-08-21T13:41:34;25.00;99.90
13806;DHT22;6974;53.606;9.872;2022-08-21T13:44:05;24.90;99.90
13806;DHT22;6974;53.606;9.872;2022-08-21T13:46:35;24.90;99.90
13806;DHT22;6974;53.606;9.872;2022-08-21T13:49:04;25.20;99.90
13806;DHT22;6974;53.606;9.872;2022-08-21T13:51:32;25.30;99.90
13806;DHT22;6974;53.606;9.872;2022-08-21T13:53:59;25.30;99.90
13806;DHT22;6974;53.606;9.872;2022-08-21T13:56:28;25.30;99.90
13806;DHT22;6974;53.606;9.872;2022-08-21T13:58:56;25.20;99.90
13806;DHT22;6974;53.606;9.872;2022-08-21T14:01:27;25.30;99.90
13806;DHT22;6974;53.606;9.872;2022-08-21T14:03:58;25.30;99.90
13806;DHT22;6974;53.606;9.872;2022-08-21T14:06:33;25.20;99.90
13806;DHT22;6974;53.606;9.872;2022-08-21T14:09:03;25.30;99.90
13806;DHT22;6974;53.606;9.872;2022-08-21T14:11:34;25.40;99.90
13806;DHT22;6974;53.606;9.872;2022-08-21T14:14:04;25.40;99.90
13806;DHT22;6974;53.606;9.872;2022-08-21T14:16:42;25.30;99.90
13806;DHT22;6974;53.606;9.872;2022-08-21T14:19:19;25.20;99.90
13806;DHT22;6974;53.606;9.872;2022-08-21T14:21:46;25.00;99.90
13806;DHT22;6974;53.606;9.872;2022-08-21T14:24:25;25.00;99.90
13806;DHT22;6974;53.606;9.872;2022-08-21T14:26:54;25.20;99.90
13806;DHT22;6974;53.606;9.872;2022-08-21T14:29:25;25.60;99.90
13806;DHT22;6974;53.606;9.872;2022-08-21T14:31:54;25.90;99.90
13806;DHT22;6974;53.606;9.872;2022-08-21T14:34:24;26.10;99.90
13806;DHT22;6974;53.606;9.872;2022-08-21T14:36:52;26.30;99.90
13806;DHT22;6974;53.606;9.872;2022-08-21T14:39:19;26.40;99.90
13806;DHT22;6974;53.606;9.872;2022-08-21T14:41:47;26.50;99.90
13806;DHT22;6974;53.606;9.872;2022-08-21T14:44:15;26.80;99.90
13806;DHT22;6974;53.606;9.872;2022-08-21T14:46:42;26.90;99.90
13806;DHT22;6974;53.606;9.872;2022-08-21T14:49:09;27.00;99.90
13806;DHT22;6974;53.606;9.872;2022-08-21T14:51:38;27.10;99.90
13806;DHT22;6974;53.606;9.872;2022-08-21T14:54:05;27.10;99.90
13806;DHT22;6974;53.606;9.872;2022-08-21T14:56:32;27.30;99.90
13806;DHT22;6974;53.606;9.872;2022-08-21T14:59:03;27.40;99.90
13806;DHT22;6974;53.606;9.872;2022-08-21T15:01:32;27.60;99.90
13806;DHT22;6974;53.606;9.872;2022-08-21T15:04:00;27.70;99.90
13806;DHT22;6974;53.606;9.872;2022-08-21T15:06:27;27.70;99.90
13806;DHT22;6974;53.606;9.872;2022-08-21T15:08:56;27.80;99.90
13806;DHT22;6974;53.606;9.872;2022-08-21T15:11:24;27.90;99.90
13806;DHT22;6974;53.606;9.872;2022-08-21T15:13:55;27.90;99.90
13806;DHT22;6974;53.606;9.872;2022-08-21T15:16:23;27.80;99.90
13806;DHT22;6974;53.606;9.872;2022-08-21T15:18:50;27.50;99.90
13806;DHT22;6974;53.606;9.872;2022-08-21T15:21:16;27.20;99.90
13806;DHT22;6974;53.606;9.872;2022-08-21T15:23:43;26.90;99.90
13806;DHT22;6974;53.606;9.872;2022-08-21T15:26:12;26.90;99.90
13806;DHT22;6974;53.606;9.872;2022-08-21T15:28:39;27.00;99.90
13806;DHT22;6974;53.606;9.872;2022-08-21T15:31:06;27.10;99.90
13806;DHT22;6974;53.606;9.872;2022-08-21T15:33:33;27.30;99.90
13806;DHT22;6974;53.606;9.872;2022-08-21T15:36:00;27.40;99.90
13806;DHT22;6974;53.606;9.872;2022-08-21T15:38:27;27.50;99.90
13806;DHT22;6974;53.606;9.872;2022-08-21T15:40:54;27.60;99.90
13806;DHT22;6974;53.606;9.872;2022-08-21T15:43:26;27.50;99.90
13806;DHT22;6974;53.606;9.872;2022-08-21T15:45:54;27.50;99.90
13806;DHT22;6974;53.606;9.872;2022-08-21T15:48:21;27.50;99.90
13806;DHT22;6974;53.606;9.872;2022-08-21T15:50:48;27.50;99.90
13806;DHT22;6974;53.606;9.872;2022-08-21T15:53:15;27.50;99.90
13806;DHT22;6974;53.606;9.872;2022-08-21T15:55:42;27.40;99.90
13806;DHT22;6974;53.606;9.872;2022-08-21T15:58:13;27.30;99.90
13806;DHT22;6974;53.606;9.872;2022-08-21T16:00:43;27.20;99.90
13806;DHT22;6974;53.606;9.872;2022-08-21T16:03:14;27.10;99.90